New Richmond, WI

04:46 AM CDT del 19 Settembre 2014 (GMT -0500)
Saint Paul Downtown-Holman | Change Station
CLOSE
Current Station
Aeroporto
Location: St. Paul,
Altitudine: 702 ft
Stazioni meteo nelle vicinanze

Alt. 702 ft 44.93 °N, 93.06 °W | Updated 53 minutes ago

Parzialmente nuvoloso
Parzialmente nuvoloso
57 °F
Sembra 57 °F
N
10
Vento Variabile Vento da SSE

Oggi
Massima -- | Minima -- °F
--% Possibilità di precip.
Ieri
Massima -- | Minima -- °F
Precip. -- in
6:53 AM 7:13 PM
Luna calante, 20% visible
Pressione 29.96 in
Visibilità 10.0 miglia
Nuvole Sereno
Punto di rugiada 53 °F
Umidità 87%
Piovosità 0.00 in
Spessore del manto nevoso Non disponibile.
Raggi UV 0 fuori da 12
Polline 2.80 fuori da 12
Ozono Buono
PM2.5 Buono
Flu Activity Non disponibile.
METAR KSTP 190853Z AUTO 15009KT 10SM CLR 14/12 A2997 RMK AO2 SLP144 T01390117 58012

More Conditions Fewer Conditions

Pressione 29.96 in
Visibilità 10.0 miglia
Nuvole Sereno
Punto di rugiada 53 °F
Umidità 87%
Piovosità 0.00 in
Spessore del manto nevoso Non disponibile.
Raggi UV 0 fuori da 12
Polline 2.80 fuori da 12
Ozono Buono
PM2.5 Buono
Flu Activity Non disponibile.
METAR KSTP 190853Z AUTO 15009KT 10SM CLR 14/12 A2997 RMK AO2 SLP144 T01390117 58012

More Conditions Fewer Conditions

10-Day Weather Forecast

Almanac

Astronomia

Sep. 19, 2014 Alba Tramonto
Ora attuale 06:53 CDT 19:13 CDT
Crepuscolo civile 06:24 CDT 19:42 CDT
Crepuscolo nautico 05:49 CDT 20:17 CDT
Crepuscolo astronomico 05:13 CDT 20:52 CDT
Luna 02:29 CDT 16:50 CDT
Estensione della luce visibile 13h 18m
Lunghezza del giorno
12h 19m
Tomorrow will be 3m 7s shorter.
Luna calante, 20% of the Moon is Illuminated
Oggi
Luna calante
Set 24
Nuovo
Ott 1
Primo quarto
Ott 8
Luna piena
Ott 15
Ultimo quarto

Gli estremi di oggi

State Highs State Lows

Community

WunderPhotos

Upload Photos

1,754,583 foto caricate!

Nearby

Qualità dell'aria

  Qualità dell'aria Indice AQ Inquinante
Ieri Buono
OZONE
Ieri Buono
PM2.5
Attuale Buono
PM2.5
Attuale Buono
OZONE
Venerdì Buono
PM2.5
Venerdì Buono
OZONE
Sabato Buono
OZONE
Sabato Buono
PM2.5
Domenica Buono
OZONE
Domenica Buono
PM2.5
Lunedì Buono
OZONE
Lunedì Buono
PM2.5
Martedì Buono
PM2.5
Martedì Buono
OZONE

Profondità neve

Stazione Profondità Altitudine
Non sono state evidenziate nuove nevicate

Attività sismica

Città  Distanza Mag. Data & Ora
Non sono state riportate attività sismiche nelle vicinanze.
Minimo Magnitudo Mostrato è 2.5.

Temperature delle acque costiere

Località Temperatura
Nessun dato dalle stazioni

Stazioni meteo nelle vicinanze